Time;durP1;ratioP1;P1;durP2;ratioP2;P2;SDS_P1;SDS_P2;PMS_P1;PMS_P2;Temp;Humidity;BMP_temperature;BMP_pressure;BME280_temperature;BME280_humidity;BME280_pressure;Samples;Min_cycle;Max_cycle;Signal;HPM_P1;HPM_P2
2023/08/06 00:01:25;;;;;;;;;;;21.00;69.00;;;;;;4998583;28;879;-69
2023/08/06 00:03:51;;;;;;;;;;;21.00;69.10;;;;;;4995983;28;1369;-70
2023/08/06 00:06:16;;;;;;;;;;;21.00;69.00;;;;;;4999616;28;863;-69
2023/08/06 00:08:42;;;;;;;;;;;21.10;69.10;;;;;;4998052;28;1260;-70
2023/08/06 00:11:07;;;;;;;;;;;21.10;69.10;;;;;;4999297;28;1421;-70
2023/08/06 00:13:32;;;;;;;;;;;21.00;69.10;;;;;;5001148;28;1550;-71
2023/08/06 00:16:10;;;;;;;;;;;21.00;69.10;;;;;;5003196;28;1327;-71
2023/08/06 00:18:36;;;;;;;;;;;21.00;69.00;;;;;;4998573;28;1906;-69
2023/08/06 00:21:01;;;;;;;;;;;21.10;69.20;;;;;;5001626;28;1633;-70
2023/08/06 00:23:27;;;;;;;;;;;21.10;69.10;;;;;;5002037;28;1372;-70
2023/08/06 00:25:52;;;;;;;;;;;21.10;69.10;;;;;;4998491;28;1384;-72
2023/08/06 00:28:18;;;;;;;;;;;21.00;69.10;;;;;;5000463;28;1367;-72
2023/08/06 00:30:43;;;;;;;;;;;21.10;69.10;;;;;;5000413;28;1514;-70
2023/08/06 00:33:08;;;;;;;;;;;21.00;69.10;;;;;;5000032;28;1003;-69
2023/08/06 00:35:34;;;;;;;;;;;21.00;69.10;;;;;;4999512;28;1273;-69
2023/08/06 00:37:59;;;;;;;;;;;21.00;69.10;;;;;;4995870;28;1962;-69
2023/08/06 00:40:25;;;;;;;;;;;21.00;69.10;;;;;;4998202;28;841;-70
2023/08/06 00:42:50;;;;;;;;;;;21.00;69.20;;;;;;5002112;28;911;-70
2023/08/06 00:45:16;;;;;;;;;;;21.10;69.20;;;;;;5003566;28;1358;-69
2023/08/06 00:47:41;;;;;;;;;;;21.00;69.10;;;;;;5000185;28;863;-70
2023/08/06 00:50:07;;;;;;;;;;;21.00;69.10;;;;;;4999129;28;876;-69
2023/08/06 00:52:33;;;;;;;;;;;21.10;69.20;;;;;;4999577;28;1051;-69
2023/08/06 00:54:58;;;;;;;;;;;21.00;69.20;;;;;;5001839;28;1269;-69
2023/08/06 00:57:24;;;;;;;;;;;21.00;69.20;;;;;;4993313;28;1902;-70
2023/08/06 00:59:49;;;;;;;;;;;21.00;69.20;;;;;;5002024;28;1282;-68
2023/08/06 01:02:15;;;;;;;;;;;21.00;69.20;;;;;;4999430;28;900;-69
2023/08/06 01:04:40;;;;;;;;;;;21.00;69.20;;;;;;5001635;28;1342;-69
2023/08/06 01:07:25;;;;;;;;;;;21.00;69.20;;;;;;5002590;28;1199;-69
2023/08/06 01:09:53;;;;;;;;;;;21.10;69.20;;;;;;5000873;28;849;-69
2023/08/06 01:12:26;;;;;;;;;;;21.10;69.20;;;;;;5002403;28;895;-69
2023/08/06 01:15:02;;;;;;;;;;;21.00;69.20;;;;;;4986766;28;1291;-69
2023/08/06 01:17:27;;;;;;;;;;;21.00;70.00;;;;;;4988320;28;1902;-69
2023/08/06 01:19:53;;;;;;;;;;;21.00;69.20;;;;;;5001645;28;951;-69
2023/08/06 01:22:19;;;;;;;;;;;21.00;69.20;;;;;;4986111;28;829;-69
2023/08/06 01:24:46;;;;;;;;;;;21.00;69.20;;;;;;4996985;28;1250;-69
2023/08/06 01:27:14;;;;;;;;;;;21.10;69.30;;;;;;5001963;28;1246;-69
2023/08/06 01:29:53;;;;;;;;;;;21.00;69.20;;;;;;5000138;28;994;-69
2023/08/06 01:32:18;;;;;;;;;;;21.00;69.20;;;;;;4999925;28;812;-69
2023/08/06 01:34:44;;;;;;;;;;;21.00;69.20;;;;;;4997960;28;1258;-69
2023/08/06 01:37:09;;;;;;;;;;;21.00;69.20;;;;;;4997696;28;1046;-69
2023/08/06 01:39:35;;;;;;;;;;;21.00;69.20;;;;;;4989132;28;1957;-69
2023/08/06 01:42:00;;;;;;;;;;;21.00;69.20;;;;;;5000338;28;921;-70
2023/08/06 01:44:26;;;;;;;;;;;21.00;69.20;;;;;;4998929;28;1350;-70
2023/08/06 01:46:51;;;;;;;;;;;21.10;69.30;;;;;;4999860;28;784;-69
2023/08/06 01:49:17;;;;;;;;;;;21.10;69.30;;;;;;4998763;28;1063;-69
2023/08/06 01:51:42;;;;;;;;;;;21.00;69.30;;;;;;4996708;28;1522;-70
2023/08/06 01:54:08;;;;;;;;;;;21.00;69.30;;;;;;4999268;28;1219;-69
2023/08/06 01:56:33;;;;;;;;;;;21.00;69.30;;;;;;5001068;28;951;-69
2023/08/06 01:58:59;;;;;;;;;;;21.00;69.30;;;;;;5003721;28;1979;-69
2023/08/06 02:01:24;;;;;;;;;;;21.00;69.30;;;;;;4993364;28;1596;-69
2023/08/06 02:03:49;;;;;;;;;;;21.00;69.20;;;;;;5000772;28;1342;-69
2023/08/06 02:06:15;;;;;;;;;;;21.00;69.30;;;;;;5004458;28;936;-69
2023/08/06 02:08:40;;;;;;;;;;;21.00;69.30;;;;;;4997926;28;830;-69
2023/08/06 02:11:06;;;;;;;;;;;21.00;69.30;;;;;;4999161;28;836;-69
2023/08/06 02:13:31;;;;;;;;;;;21.00;69.30;;;;;;5001325;28;1220;-69
2023/08/06 02:15:57;;;;;;;;;;;21.00;69.30;;;;;;5002973;28;962;-69
2023/08/06 02:18:22;;;;;;;;;;;21.00;69.30;;;;;;4997572;28;2404;-69
2023/08/06 02:20:57;;;;;;;;;;;21.00;70.00;;;;;;5003296;28;1255;-69
2023/08/06 02:23:23;;;;;;;;;;;21.00;69.30;;;;;;4998610;28;812;-69
2023/08/06 02:25:48;;;;;;;;;;;21.00;69.30;;;;;;4998979;28;1275;-68
2023/08/06 02:28:13;;;;;;;;;;;21.00;69.30;;;;;;4998411;28;944;-68
2023/08/06 02:30:39;;;;;;;;;;;21.00;69.30;;;;;;4995539;28;1045;-69
2023/08/06 02:33:04;;;;;;;;;;;21.10;69.30;;;;;;4999708;28;781;-69
2023/08/06 02:35:30;;;;;;;;;;;21.00;69.30;;;;;;4995845;28;1278;-69
2023/08/06 02:37:55;;;;;;;;;;;21.00;69.30;;;;;;5002224;28;1910;-69
2023/08/06 02:40:21;;;;;;;;;;;21.00;69.30;;;;;;5003040;28;1368;-69
2023/08/06 02:42:46;;;;;;;;;;;21.00;69.30;;;;;;4995566;28;848;-69
2023/08/06 02:45:12;;;;;;;;;;;21.00;69.30;;;;;;4998167;28;1238;-68
2023/08/06 02:47:37;;;;;;;;;;;21.00;69.30;;;;;;4997472;28;804;-69
2023/08/06 02:50:03;;;;;;;;;;;21.00;69.30;;;;;;5000251;28;858;-69
2023/08/06 02:52:28;;;;;;;;;;;21.00;69.30;;;;;;5004491;28;872;-70
2023/08/06 02:54:54;;;;;;;;;;;21.00;69.30;;;;;;5000727;28;1255;-70
2023/08/06 02:57:19;;;;;;;;;;;21.10;69.30;;;;;;4999501;28;860;-70
2023/08/06 02:59:44;;;;;;;;;;;21.00;69.30;;;;;;5000376;28;1969;-70
2023/08/06 03:02:10;;;;;;;;;;;21.00;70.10;;;;;;5000258;28;900;-70
2023/08/06 03:04:35;;;;;;;;;;;21.00;69.30;;;;;;5001432;28;1292;-70
2023/08/06 03:07:01;;;;;;;;;;;21.00;69.30;;;;;;4997476;28;848;-70
2023/08/06 03:09:26;;;;;;;;;;;21.00;69.30;;;;;;5000496;28;841;-70
2023/08/06 03:11:52;;;;;;;;;;;21.00;69.30;;;;;;5001721;28;858;-70
2023/08/06 03:14:17;;;;;;;;;;;21.00;69.40;;;;;;5001768;28;1330;-70
2023/08/06 03:16:43;;;;;;;;;;;21.00;69.30;;;;;;4997234;28;898;-70
2023/08/06 03:19:08;;;;;;;;;;;21.00;69.30;;;;;;4998823;28;1872;-68
2023/08/06 03:21:34;;;;;;;;;;;21.00;69.40;;;;;;5000528;28;943;-69
2023/08/06 03:23:59;;;;;;;;;;;21.00;69.30;;;;;;4999144;28;1280;-68
2023/08/06 03:26:24;;;;;;;;;;;21.00;69.30;;;;;;4996221;28;856;-68
2023/08/06 03:28:50;;;;;;;;;;;21.00;69.40;;;;;;4995983;28;918;-68
2023/08/06 03:31:15;;;;;;;;;;;21.00;69.40;;;;;;4983092;28;853;-69
2023/08/06 03:33:41;;;;;;;;;;;21.00;70.10;;;;;;5000609;28;1374;-68
2023/08/06 03:36:06;;;;;;;;;;;21.00;69.40;;;;;;4990658;28;1259;-70
2023/08/06 03:38:32;;;;;;;;;;;21.00;69.40;;;;;;4997733;28;1906;-71
2023/08/06 03:40:57;;;;;;;;;;;21.00;69.40;;;;;;4997353;28;884;-69
2023/08/06 03:43:23;;;;;;;;;;;21.00;69.40;;;;;;5000453;28;864;-72
2023/08/06 03:45:48;;;;;;;;;;;21.00;69.40;;;;;;4993504;28;1273;-70
2023/08/06 03:48:14;;;;;;;;;;;21.00;69.40;;;;;;4999114;28;888;-69
2023/08/06 03:50:39;;;;;;;;;;;21.00;69.40;;;;;;5001272;28;967;-70
2023/08/06 03:53:04;;;;;;;;;;;21.00;69.40;;;;;;4996880;28;899;-70
2023/08/06 03:55:30;;;;;;;;;;;21.00;69.40;;;;;;4998717;28;1323;-70
2023/08/06 03:57:55;;;;;;;;;;;21.00;69.40;;;;;;4996662;28;1914;-70
2023/08/06 04:00:21;;;;;;;;;;;21.00;69.40;;;;;;4995355;28;809;-69
2023/08/06 04:02:46;;;;;;;;;;;21.00;69.40;;;;;;4996513;28;1229;-70
2023/08/06 04:05:12;;;;;;;;;;;21.00;69.40;;;;;;4998839;28;1267;-70
2023/08/06 04:07:37;;;;;;;;;;;21.00;69.40;;;;;;4994363;28;870;-69
2023/08/06 04:10:03;;;;;;;;;;;21.00;69.40;;;;;;4999726;28;845;-69
2023/08/06 04:12:29;;;;;;;;;;;21.10;69.50;;;;;;4996975;28;916;-70
2023/08/06 04:14:54;;;;;;;;;;;21.00;69.40;;;;;;5002520;28;1256;-70
2023/08/06 04:17:20;;;;;;;;;;;21.00;69.40;;;;;;5003150;28;847;-70
2023/08/06 04:19:49;;;;;;;;;;;21.00;69.40;;;;;;4991308;28;1895;-70
2023/08/06 04:22:14;;;;;;;;;;;21.00;69.50;;;;;;4987559;28;978;-70
2023/08/06 04:24:40;;;;;;;;;;;21.00;69.40;;;;;;5002625;28;1307;-70
2023/08/06 04:27:05;;;;;;;;;;;21.00;69.50;;;;;;5002725;28;1346;-70
2023/08/06 04:29:31;;;;;;;;;;;21.00;69.50;;;;;;4999022;28;815;-70
2023/08/06 04:31:57;;;;;;;;;;;21.00;69.50;;;;;;5002317;28;850;-70
2023/08/06 04:34:22;;;;;;;;;;;21.00;69.50;;;;;;5000548;28;1335;-70
2023/08/06 04:36:48;;;;;;;;;;;21.00;69.50;;;;;;5003088;28;931;-70
2023/08/06 04:39:13;;;;;;;;;;;21.00;69.50;;;;;;5002809;28;1887;-70
2023/08/06 04:41:39;;;;;;;;;;;21.10;69.60;;;;;;4999063;28;917;-70
2023/08/06 04:44:04;;;;;;;;;;;21.00;69.50;;;;;;4997166;28;1369;-70
2023/08/06 04:46:30;;;;;;;;;;;21.00;69.60;;;;;;5002031;28;860;-70
2023/08/06 04:48:55;;;;;;;;;;;21.00;69.50;;;;;;5004824;28;897;-71
2023/08/06 04:51:21;;;;;;;;;;;21.00;69.50;;;;;;4988345;28;860;-70
2023/08/06 04:53:46;;;;;;;;;;;21.00;69.50;;;;;;5001037;28;1284;-70
2023/08/06 04:56:12;;;;;;;;;;;21.00;69.60;;;;;;5004761;28;908;-71
2023/08/06 04:58:37;;;;;;;;;;;21.10;69.60;;;;;;4998642;28;1964;-71
2023/08/06 05:01:02;;;;;;;;;;;21.00;69.50;;;;;;5002207;28;1628;-71
2023/08/06 05:03:28;;;;;;;;;;;21.00;69.50;;;;;;4987590;28;1178;-70
2023/08/06 05:05:54;;;;;;;;;;;21.00;69.50;;;;;;5002865;28;1395;-69
2023/08/06 05:08:19;;;;;;;;;;;21.00;69.60;;;;;;5001491;28;923;-70
2023/08/06 05:10:45;;;;;;;;;;;21.00;69.60;;;;;;4998546;28;1257;-70
2023/08/06 05:13:10;;;;;;;;;;;21.00;69.60;;;;;;4999539;28;1259;-72
2023/08/06 05:15:36;;;;;;;;;;;21.00;69.60;;;;;;4999271;28;1258;-72
2023/08/06 05:18:01;;;;;;;;;;;21.10;69.70;;;;;;5001872;28;1956;-70
2023/08/06 05:20:27;;;;;;;;;;;21.00;69.60;;;;;;4998402;28;1492;-72
2023/08/06 05:22:52;;;;;;;;;;;21.00;69.60;;;;;;4983741;28;1203;-71
2023/08/06 05:25:18;;;;;;;;;;;21.00;69.60;;;;;;4997580;28;1333;-71
2023/08/06 05:27:43;;;;;;;;;;;21.00;69.60;;;;;;5001188;28;1327;-70
2023/08/06 05:30:09;;;;;;;;;;;21.00;69.60;;;;;;4998401;28;805;-70
2023/08/06 05:32:34;;;;;;;;;;;21.00;69.60;;;;;;5001367;28;900;-70
2023/08/06 05:35:00;;;;;;;;;;;21.00;69.60;;;;;;5005663;28;1261;-70
2023/08/06 05:37:25;;;;;;;;;;;21.00;69.60;;;;;;5007109;28;865;-70
2023/08/06 05:39:50;;;;;;;;;;;21.10;69.70;;;;;;4999752;28;1910;-70
2023/08/06 05:42:16;;;;;;;;;;;21.00;69.60;;;;;;4997072;28;860;-68
2023/08/06 05:44:41;;;;;;;;;;;21.00;69.60;;;;;;5002028;28;1292;-68
2023/08/06 05:47:07;;;;;;;;;;;21.00;69.60;;;;;;5002084;28;873;-68
2023/08/06 05:49:32;;;;;;;;;;;21.00;69.60;;;;;;4999817;28;937;-68
2023/08/06 05:51:58;;;;;;;;;;;21.00;69.60;;;;;;5000605;28;868;-68
2023/08/06 05:54:23;;;;;;;;;;;21.00;69.60;;;;;;5002498;28;1289;-69
2023/08/06 05:56:49;;;;;;;;;;;21.00;69.60;;;;;;5001171;28;1039;-68
2023/08/06 05:59:14;;;;;;;;;;;21.00;69.60;;;;;;5002002;28;1918;-68
2023/08/06 06:01:40;;;;;;;;;;;21.10;69.70;;;;;;4999637;28;1095;-68
2023/08/06 06:04:05;;;;;;;;;;;21.00;69.70;;;;;;4999088;28;1275;-70
2023/08/06 06:06:31;;;;;;;;;;;21.00;69.70;;;;;;4997586;28;932;-69
2023/08/06 06:08:56;;;;;;;;;;;21.00;69.70;;;;;;5004330;28;1311;-70
2023/08/06 06:11:22;;;;;;;;;;;21.00;69.70;;;;;;5004454;28;793;-69
2023/08/06 06:13:50;;;;;;;;;;;21.00;69.70;;;;;;5002685;28;1380;-69
2023/08/06 06:16:16;;;;;;;;;;;21.10;69.70;;;;;;4998542;28;869;-69
2023/08/06 06:18:41;;;;;;;;;;;21.10;69.70;;;;;;4999234;28;2070;-69
2023/08/06 06:21:07;;;;;;;;;;;21.00;69.70;;;;;;5000274;28;1248;-69
2023/08/06 06:23:32;;;;;;;;;;;21.00;69.70;;;;;;5000006;28;1242;-69
2023/08/06 06:25:57;;;;;;;;;;;21.00;69.70;;;;;;5003585;28;1239;-69
2023/08/06 06:28:23;;;;;;;;;;;21.00;69.70;;;;;;4999835;28;1330;-69
2023/08/06 06:30:48;;;;;;;;;;;21.00;69.70;;;;;;4998992;28;819;-69
2023/08/06 06:33:14;;;;;;;;;;;21.00;69.70;;;;;;5002610;28;868;-70
2023/08/06 06:35:39;;;;;;;;;;;21.00;69.70;;;;;;5004411;28;1256;-69
2023/08/06 06:38:05;;;;;;;;;;;21.00;69.70;;;;;;5002465;28;1902;-69
2023/08/06 06:40:30;;;;;;;;;;;21.00;69.70;;;;;;5000194;28;871;-69
2023/08/06 06:42:56;;;;;;;;;;;21.00;69.70;;;;;;5007103;28;867;-70
2023/08/06 06:45:21;;;;;;;;;;;21.00;69.70;;;;;;5000979;28;1332;-71
2023/08/06 06:47:46;;;;;;;;;;;21.00;69.70;;;;;;5001278;28;1344;-74
2023/08/06 06:50:12;;;;;;;;;;;21.00;69.70;;;;;;4996606;28;1743;-74
2023/08/06 06:52:37;;;;;;;;;;;21.00;69.70;;;;;;5001992;28;830;-72
2023/08/06 06:55:03;;;;;;;;;;;21.00;69.70;;;;;;4987968;28;2062;-69
2023/08/06 06:57:29;;;;;;;;;;;21.00;69.70;;;;;;4986283;28;841;-70
2023/08/06 06:59:54;;;;;;;;;;;21.00;69.70;;;;;;4987986;28;1899;-70
2023/08/06 07:02:19;;;;;;;;;;;21.00;69.70;;;;;;4997527;28;1869;-70
2023/08/06 07:04:45;;;;;;;;;;;21.00;69.80;;;;;;5001840;28;1267;-70
2023/08/06 07:07:10;;;;;;;;;;;21.00;69.80;;;;;;4998950;28;998;-70
2023/08/06 07:09:36;;;;;;;;;;;21.00;69.80;;;;;;4999897;28;1061;-70
2023/08/06 07:12:02;;;;;;;;;;;21.00;69.80;;;;;;5004365;28;911;-70
2023/08/06 07:14:28;;;;;;;;;;;21.00;69.80;;;;;;4996605;28;1257;-69
2023/08/06 07:16:53;;;;;;;;;;;21.00;69.80;;;;;;5002262;28;878;-70
2023/08/06 07:19:19;;;;;;;;;;;21.00;69.80;;;;;;4996499;28;1891;-69
2023/08/06 07:21:44;;;;;;;;;;;21.00;69.80;;;;;;4999877;28;1172;-70
2023/08/06 07:24:09;;;;;;;;;;;21.00;69.80;;;;;;5002137;28;1263;-69
2023/08/06 07:26:35;;;;;;;;;;;21.00;69.80;;;;;;4976668;28;1397;-69
2023/08/06 07:29:00;;;;;;;;;;;21.00;69.80;;;;;;5009241;28;1058;-70
2023/08/06 07:31:26;;;;;;;;;;;21.10;69.90;;;;;;4993449;28;1183;-70
2023/08/06 07:33:51;;;;;;;;;;;21.00;69.80;;;;;;4999746;28;1398;-70
2023/08/06 07:36:17;;;;;;;;;;;21.00;69.80;;;;;;4997430;28;867;-70
2023/08/06 07:38:43;;;;;;;;;;;21.00;69.80;;;;;;4996186;28;1951;-70
2023/08/06 07:41:09;;;;;;;;;;;21.00;69.80;;;;;;5001150;28;890;-70
2023/08/06 07:43:35;;;;;;;;;;;21.10;69.90;;;;;;4999141;28;817;-70
2023/08/06 07:46:01;;;;;;;;;;;21.00;69.80;;;;;;5002163;28;907;-72
2023/08/06 07:48:29;;;;;;;;;;;21.00;69.80;;;;;;4984392;28;801;-71
2023/08/06 07:50:55;;;;;;;;;;;21.00;69.80;;;;;;4983549;28;1350;-72
2023/08/06 07:53:23;;;;;;;;;;;21.00;69.80;;;;;;5007086;28;813;-70
2023/08/06 07:55:50;;;;;;;;;;;21.00;69.80;;;;;;4997235;28;1203;-69
2023/08/06 07:58:16;;;;;;;;;;;21.00;69.80;;;;;;4991757;28;1914;-70
2023/08/06 08:00:42;;;;;;;;;;;21.10;69.90;;;;;;4997914;28;869;-70
2023/08/06 08:03:07;;;;;;;;;;;21.00;69.80;;;;;;4998445;28;853;-70
2023/08/06 08:05:33;;;;;;;;;;;21.00;69.80;;;;;;4999895;28;1209;-69
2023/08/06 08:07:58;;;;;;;;;;;21.00;69.80;;;;;;4997372;28;950;-70
2023/08/06 08:10:24;;;;;;;;;;;21.00;69.90;;;;;;5000733;28;1187;-71
2023/08/06 08:12:49;;;;;;;;;;;21.00;69.80;;;;;;4997992;28;804;-71
2023/08/06 08:15:15;;;;;;;;;;;21.00;69.80;;;;;;4986354;28;1433;-70
2023/08/06 08:17:40;;;;;;;;;;;21.00;69.80;;;;;;4986639;28;1969;-69
2023/08/06 08:20:06;;;;;;;;;;;21.00;69.80;;;;;;5001356;28;1452;-71
2023/08/06 08:22:31;;;;;;;;;;;21.00;69.80;;;;;;4985291;28;1440;-71
2023/08/06 08:24:57;;;;;;;;;;;21.00;69.80;;;;;;4998168;28;1360;-71
2023/08/06 08:27:22;;;;;;;;;;;21.00;69.80;;;;;;5001617;28;1309;-70
2023/08/06 08:29:48;;;;;;;;;;;21.00;69.80;;;;;;5005303;28;871;-70
2023/08/06 08:32:13;;;;;;;;;;;21.10;69.90;;;;;;5005415;28;943;-71
2023/08/06 08:34:39;;;;;;;;;;;21.00;69.80;;;;;;4989966;28;1385;-70
2023/08/06 08:37:06;;;;;;;;;;;21.00;69.80;;;;;;5000022;28;888;-71
2023/08/06 08:39:31;;;;;;;;;;;21.00;69.80;;;;;;4998456;28;1914;-71
2023/08/06 08:41:56;;;;;;;;;;;21.00;69.90;;;;;;5000572;28;904;-70
2023/08/06 08:44:23;;;;;;;;;;;21.10;70.00;;;;;;4995876;28;1283;-71
2023/08/06 08:46:49;;;;;;;;;;;21.00;69.90;;;;;;5005923;28;867;-71
2023/08/06 08:49:14;;;;;;;;;;;21.00;69.90;;;;;;4985480;28;824;-70
2023/08/06 08:51:39;;;;;;;;;;;21.10;70.00;;;;;;5002006;28;857;-71
2023/08/06 08:54:05;;;;;;;;;;;21.00;69.90;;;;;;4979191;28;1386;-70
2023/08/06 08:56:31;;;;;;;;;;;21.00;69.90;;;;;;4995435;28;884;-70
2023/08/06 08:58:57;;;;;;;;;;;21.00;69.90;;;;;;5004959;28;1914;-70
2023/08/06 09:01:22;;;;;;;;;;;21.00;69.90;;;;;;5000795;28;821;-70
2023/08/06 09:03:48;;;;;;;;;;;21.00;69.90;;;;;;4977526;28;1253;-69
2023/08/06 09:06:13;;;;;;;;;;;21.10;70.00;;;;;;4991165;28;1403;-70
2023/08/06 09:08:43;;;;;;;;;;;21.00;69.90;;;;;;4987241;28;1444;-69
2023/08/06 09:11:09;;;;;;;;;;;21.00;69.90;;;;;;5000858;28;1379;-70
2023/08/06 09:13:35;;;;;;;;;;;21.00;69.90;;;;;;4986289;28;1418;-70
2023/08/06 09:16:00;;;;;;;;;;;21.00;69.90;;;;;;5007973;28;1494;-71
2023/08/06 09:18:29;;;;;;;;;;;21.00;70.00;;;;;;5005091;28;1890;-70
2023/08/06 09:20:54;;;;;;;;;;;21.00;69.90;;;;;;5004158;28;1489;-69
2023/08/06 09:23:20;;;;;;;;;;;21.10;70.00;;;;;;5007280;28;1540;-70
2023/08/06 09:25:45;;;;;;;;;;;21.00;69.90;;;;;;5005428;28;1786;-68
2023/08/06 09:28:11;;;;;;;;;;;21.00;69.90;;;;;;5005908;28;1429;-68
2023/08/06 09:30:37;;;;;;;;;;;21.10;70.00;;;;;;4989636;28;1502;-70
2023/08/06 09:33:02;;;;;;;;;;;21.00;69.90;;;;;;5001486;28;836;-70
2023/08/06 09:35:31;;;;;;;;;;;21.10;70.00;;;;;;5000102;28;1339;-70
2023/08/06 09:38:10;;;;;;;;;;;21.00;69.90;;;;;;5000373;28;1898;-70
2023/08/06 09:40:35;;;;;;;;;;;21.00;69.90;;;;;;5001265;28;917;-71
2023/08/06 09:43:01;;;;;;;;;;;21.00;69.90;;;;;;4995575;28;809;-71
2023/08/06 09:45:33;;;;;;;;;;;21.00;70.00;;;;;;5006545;28;1244;-70
2023/08/06 09:47:59;;;;;;;;;;;21.00;69.90;;;;;;4985066;28;836;-72
2023/08/06 09:50:28;;;;;;;;;;;21.00;70.00;;;;;;5001026;28;932;-70
2023/08/06 09:52:53;;;;;;;;;;;21.00;69.90;;;;;;4997414;28;1098;-70
2023/08/06 09:55:19;;;;;;;;;;;21.00;69.90;;;;;;4991326;28;1338;-70
2023/08/06 09:57:44;;;;;;;;;;;21.00;69.90;;;;;;5005785;28;1902;-70
2023/08/06 10:00:10;;;;;;;;;;;21.00;70.00;;;;;;5000957;28;796;-70
2023/08/06 10:02:39;;;;;;;;;;;21.10;70.00;;;;;;5004036;28;805;-70
2023/08/06 10:05:05;;;;;;;;;;;21.10;70.00;;;;;;5000186;28;1256;-70
2023/08/06 10:07:31;;;;;;;;;;;21.00;69.90;;;;;;4995881;28;824;-70
2023/08/06 10:09:56;;;;;;;;;;;21.10;70.00;;;;;;5011571;28;1019;-70
2023/08/06 10:12:22;;;;;;;;;;;21.10;70.00;;;;;;5004967;28;768;-70
2023/08/06 10:14:47;;;;;;;;;;;21.00;70.00;;;;;;4992329;28;1381;-71
2023/08/06 10:17:13;;;;;;;;;;;21.00;70.00;;;;;;4986111;28;758;-70
2023/08/06 10:19:38;;;;;;;;;;;21.00;69.90;;;;;;4992389;28;1974;-70
2023/08/06 10:22:11;;;;;;;;;;;21.00;70.00;;;;;;4991608;28;939;-70
2023/08/06 10:24:45;;;;;;;;;;;21.10;70.00;;;;;;5006685;28;1198;-70
2023/08/06 10:27:11;;;;;;;;;;;21.00;70.70;;;;;;5006389;28;808;-70
2023/08/06 10:29:37;;;;;;;;;;;21.00;70.00;;;;;;5007228;28;822;-70
2023/08/06 10:32:02;;;;;;;;;;;21.10;70.00;;;;;;5002101;28;864;-70
2023/08/06 10:34:52;;;;;;;;;;;21.00;70.00;;;;;;5005754;28;1378;-70
2023/08/06 10:37:18;;;;;;;;;;;21.00;70.00;;;;;;5000315;28;896;-70
2023/08/06 10:39:50;;;;;;;;;;;21.10;70.10;;;;;;4998278;28;1977;-70
2023/08/06 10:42:22;;;;;;;;;;;21.00;70.00;;;;;;4999695;28;856;-70
2023/08/06 10:45:07;;;;;;;;;;;21.00;70.00;;;;;;4985649;28;1402;-70
2023/08/06 10:47:38;;;;;;;;;;;21.00;70.00;;;;;;5002711;28;816;-70
2023/08/06 10:50:03;;;;;;;;;;;21.00;70.00;;;;;;5000942;28;911;-70
2023/08/06 10:52:29;;;;;;;;;;;21.00;70.00;;;;;;4998804;28;904;-70
2023/08/06 10:54:55;;;;;;;;;;;21.00;70.00;;;;;;5005289;28;1502;-70
2023/08/06 10:57:20;;;;;;;;;;;21.00;70.00;;;;;;4986987;28;1287;-70
2023/08/06 10:59:46;;;;;;;;;;;21.00;70.00;;;;;;5003745;28;1981;-71
2023/08/06 11:02:11;;;;;;;;;;;21.00;70.00;;;;;;5007729;28;1282;-71
2023/08/06 11:04:36;;;;;;;;;;;21.10;70.10;;;;;;5004423;28;1389;-71
2023/08/06 11:07:02;;;;;;;;;;;21.10;70.00;;;;;;4986478;28;1290;-72
2023/08/06 11:09:27;;;;;;;;;;;21.00;70.00;;;;;;5004639;28;1405;-71
2023/08/06 11:11:53;;;;;;;;;;;21.00;70.00;;;;;;4999610;28;1420;-72
2023/08/06 11:14:19;;;;;;;;;;;21.00;70.00;;;;;;5010149;28;1345;-71
2023/08/06 11:16:44;;;;;;;;;;;21.00;70.10;;;;;;4993298;28;1274;-71
2023/08/06 11:19:10;;;;;;;;;;;21.00;70.00;;;;;;4976634;28;1978;-69
2023/08/06 11:21:35;;;;;;;;;;;21.10;70.00;;;;;;4999520;28;2194;-70
2023/08/06 11:24:01;;;;;;;;;;;21.10;70.10;;;;;;5005090;28;1336;-71
2023/08/06 11:26:28;;;;;;;;;;;21.00;70.00;;;;;;5001808;28;1541;-70
2023/08/06 11:28:53;;;;;;;;;;;21.00;70.00;;;;;;5003973;28;1941;-69
2023/08/06 11:31:22;;;;;;;;;;;21.10;70.10;;;;;;5002685;28;1362;-70
2023/08/06 11:33:48;;;;;;;;;;;21.00;70.00;;;;;;4990297;28;1310;-70
2023/08/06 11:36:16;;;;;;;;;;;21.10;70.10;;;;;;4997258;28;1459;-70
2023/08/06 11:38:41;;;;;;;;;;;21.10;70.10;;;;;;4998700;28;1898;-70
2023/08/06 11:41:07;;;;;;;;;;;21.10;70.10;;;;;;4985241;28;942;-70
2023/08/06 11:43:32;;;;;;;;;;;21.10;70.10;;;;;;4997533;28;960;-70
2023/08/06 11:46:00;;;;;;;;;;;21.00;70.00;;;;;;5000105;28;1356;-70
2023/08/06 11:48:25;;;;;;;;;;;21.00;70.00;;;;;;5001490;28;839;-70
2023/08/06 11:50:53;;;;;;;;;;;21.10;70.10;;;;;;4999126;28;933;-69
2023/08/06 11:53:19;;;;;;;;;;;21.10;70.10;;;;;;4997379;28;820;-70
2023/08/06 11:55:49;;;;;;;;;;;21.00;70.00;;;;;;4998148;28;1383;-70
2023/08/06 11:58:16;;;;;;;;;;;21.00;70.00;;;;;;4997649;28;1972;-70
2023/08/06 12:00:42;;;;;;;;;;;21.00;70.00;;;;;;4998402;28;990;-70
2023/08/06 12:03:07;;;;;;;;;;;21.10;70.00;;;;;;4994852;28;966;-71
2023/08/06 12:05:33;;;;;;;;;;;21.10;70.10;;;;;;4999007;28;1338;-70
2023/08/06 12:07:59;;;;;;;;;;;21.10;70.10;;;;;;4998366;28;876;-71
2023/08/06 12:10:25;;;;;;;;;;;21.10;70.10;;;;;;4997634;28;864;-70
2023/08/06 12:12:50;;;;;;;;;;;21.10;70.10;;;;;;4985232;28;845;-70
2023/08/06 12:15:16;;;;;;;;;;;21.10;70.10;;;;;;5001571;28;1271;-70
2023/08/06 12:17:42;;;;;;;;;;;21.00;70.00;;;;;;4999881;28;815;-70
2023/08/06 12:20:08;;;;;;;;;;;21.00;70.00;;;;;;4987516;28;1902;-71
2023/08/06 12:22:37;;;;;;;;;;;21.10;70.10;;;;;;5000639;28;1023;-73
2023/08/06 12:25:03;;;;;;;;;;;21.00;70.00;;;;;;5000482;28;1300;-73
2023/08/06 12:27:29;;;;;;;;;;;21.00;70.10;;;;;;4993255;28;884;-72
2023/08/06 12:29:54;;;;;;;;;;;21.00;70.00;;;;;;4992901;28;845;-72
2023/08/06 12:32:20;;;;;;;;;;;21.10;70.10;;;;;;5000884;28;1042;-71
2023/08/06 12:34:45;;;;;;;;;;;21.10;70.10;;;;;;5004751;28;1284;-71
2023/08/06 12:37:11;;;;;;;;;;;21.00;70.10;;;;;;5004789;28;1317;-68
2023/08/06 12:39:36;;;;;;;;;;;21.10;70.10;;;;;;4987727;28;1973;-72
2023/08/06 12:42:02;;;;;;;;;;;21.00;70.10;;;;;;5007198;28;1530;-70
2023/08/06 12:44:28;;;;;;;;;;;21.00;70.10;;;;;;4989068;28;1308;-69
2023/08/06 12:46:53;;;;;;;;;;;21.10;70.20;;;;;;4986328;28;829;-70
2023/08/06 12:49:20;;;;;;;;;;;21.10;70.10;;;;;;4977784;28;1531;-70
2023/08/06 12:51:46;;;;;;;;;;;21.00;70.10;;;;;;5001637;28;813;-70
2023/08/06 12:54:12;;;;;;;;;;;21.00;70.10;;;;;;5001343;28;1295;-70
2023/08/06 12:56:37;;;;;;;;;;;21.10;70.10;;;;;;5001097;28;1387;-70
2023/08/06 12:59:03;;;;;;;;;;;21.00;70.10;;;;;;4996546;28;1975;-70
2023/08/06 13:01:28;;;;;;;;;;;21.10;70.20;;;;;;5002732;28;821;-71
2023/08/06 13:03:54;;;;;;;;;;;21.00;70.10;;;;;;5001673;28;1391;-72
2023/08/06 13:06:19;;;;;;;;;;;21.10;70.20;;;;;;5003745;28;876;-72
2023/08/06 13:08:45;;;;;;;;;;;21.10;70.10;;;;;;5001678;28;863;-70
2023/08/06 13:11:10;;;;;;;;;;;21.00;70.10;;;;;;5003286;28;813;-70
2023/08/06 13:13:36;;;;;;;;;;;21.00;70.10;;;;;;4984795;28;855;-70
2023/08/06 13:16:01;;;;;;;;;;;21.00;70.10;;;;;;5003542;28;1235;-70
2023/08/06 13:18:29;;;;;;;;;;;21.00;70.10;;;;;;5004646;28;1932;-70
2023/08/06 13:20:54;;;;;;;;;;;21.00;70.10;;;;;;4987701;28;1346;-71
2023/08/06 13:23:20;;;;;;;;;;;21.00;70.10;;;;;;5001573;28;892;-71
2023/08/06 13:25:45;;;;;;;;;;;21.10;70.20;;;;;;4993136;28;1272;-71
2023/08/06 13:28:11;;;;;;;;;;;21.10;70.20;;;;;;5000960;28;1247;-71
2023/08/06 13:30:41;;;;;;;;;;;21.00;70.10;;;;;;5002770;28;841;-72
2023/08/06 13:33:07;;;;;;;;;;;21.00;70.10;;;;;;4997938;28;911;-70
2023/08/06 13:35:32;;;;;;;;;;;21.10;70.20;;;;;;4988348;28;1362;-71
2023/08/06 13:37:58;;;;;;;;;;;21.00;70.10;;;;;;4998269;28;1987;-71
2023/08/06 13:40:23;;;;;;;;;;;21.00;70.10;;;;;;4997840;28;888;-71
2023/08/06 13:42:49;;;;;;;;;;;21.10;70.20;;;;;;4996967;28;793;-71
2023/08/06 13:45:14;;;;;;;;;;;21.00;70.10;;;;;;5000450;28;1350;-71
2023/08/06 13:47:40;;;;;;;;;;;21.10;70.20;;;;;;5002621;28;1011;-71
2023/08/06 13:50:06;;;;;;;;;;;21.10;70.20;;;;;;5006638;28;1049;-71
2023/08/06 13:52:31;;;;;;;;;;;21.10;70.20;;;;;;4987283;28;872;-71
2023/08/06 13:54:57;;;;;;;;;;;21.10;70.20;;;;;;5004344;28;1286;-70
2023/08/06 13:57:22;;;;;;;;;;;21.10;70.20;;;;;;5001314;28;876;-71
2023/08/06 13:59:48;;;;;;;;;;;21.10;70.20;;;;;;4986531;28;1906;-71
2023/08/06 14:02:13;;;;;;;;;;;21.10;70.20;;;;;;5003938;28;804;-71
2023/08/06 14:04:39;;;;;;;;;;;21.00;70.10;;;;;;5006277;28;1343;-71
2023/08/06 14:07:05;;;;;;;;;;;21.10;70.20;;;;;;5000864;28;875;-71
2023/08/06 14:09:31;;;;;;;;;;;21.10;70.20;;;;;;5002660;28;852;-70
2023/08/06 14:11:56;;;;;;;;;;;21.10;70.90;;;;;;5007124;28;923;-71
2023/08/06 14:14:25;;;;;;;;;;;21.00;70.10;;;;;;4999333;28;1381;-71
2023/08/06 14:16:54;;;;;;;;;;;21.10;70.20;;;;;;4998058;28;1269;-70
2023/08/06 14:19:20;;;;;;;;;;;21.00;70.10;;;;;;5005850;28;1891;-71
2023/08/06 14:21:45;;;;;;;;;;;21.00;70.10;;;;;;5005188;28;808;-71
2023/08/06 14:24:10;;;;;;;;;;;21.10;70.90;;;;;;5003968;28;1434;-70
2023/08/06 14:26:37;;;;;;;;;;;21.10;70.20;;;;;;5001806;28;864;-70
2023/08/06 14:29:02;;;;;;;;;;;21.00;70.10;;;;;;5002406;28;865;-71